Time;durP1;ratioP1;P1;durP2;ratioP2;P2;SDS_P1;SDS_P2;PMS_P1;PMS_P2;Temp;Humidity;BMP_temperature;BMP_pressure;BME280_temperature;BME280_humidity;BME280_pressure;Samples;Min_cycle;Max_cycle;Signal;HPM_P1;HPM_P2
2023/09/04 00:01:25;;;;;;;;;;;;;;;;;;5056480;28;19921;-23
2023/09/04 00:03:51;;;;;;;;;;;;;;;;;;5055999;28;19909;-28
2023/09/04 00:06:17;;;;;;;;;;;;;;;;;;5055978;28;19939;-31
2023/09/04 00:08:43;;;;;;;;;;;;;;;;;;5056148;28;20256;-28
2023/09/04 00:11:09;;;;;;;;;;;;;;;;;;5056077;28;19980;-25
2023/09/04 00:13:36;;;;;;;;;;;;;;;;;;5055947;28;19919;-32
2023/09/04 00:16:02;;;;;;;;;;;;;;;;;;5056733;28;19972;-28
2023/09/04 00:18:27;;;;;;;;;;;;;;;;;;5055994;28;19909;-28
2023/09/04 00:20:53;;;;;;;;;;;;;;;;;;5055912;28;19908;-29
2023/09/04 00:23:19;;;;;;;;;;;;;;;;;;5055973;28;19908;-27
2023/09/04 00:25:45;;;;;;;;;;;;;;;;;;5055797;28;19940;-25
2023/09/04 00:28:13;;;;;;;;;;;;;;;;;;5055974;28;19909;-29
2023/09/04 00:30:39;;;;;;;;;;;;;;;;;;5056017;28;20000;-25
2023/09/04 00:33:05;;;;;;;;;;;;;;;;;;5055549;28;19971;-28
2023/09/04 00:35:31;;;;;;;;;;;;;;;;;;5055805;28;19913;-26
2023/09/04 00:37:57;;;;;;;;;;;;;;;;;;5055806;28;19909;-27
2023/09/04 00:40:23;;;;;;;;;;;;;;;;;;5055467;28;20328;-23
2023/09/04 00:42:49;;;;;;;;;;;;;;;;;;5055396;28;19915;-29
2023/09/04 00:45:15;;;;;;;;;;;;;;;;;;5054432;28;19913;-27
2023/09/04 00:47:41;;;;;;;;;;;;;;;;;;5055660;28;19970;-25
2023/09/04 00:50:06;;;;;;;;;;;;;;;;;;5055322;28;19941;-28
2023/09/04 00:52:32;;;;;;;;;;;;;;;;;;5055519;28;20340;-25
2023/09/04 00:54:58;;;;;;;;;;;;;;;;;;5055299;28;19909;-24
2023/09/04 00:57:26;;;;;;;;;;;;;;;;;;5055150;28;20003;-22
2023/09/04 00:59:52;;;;;;;;;;;;;;;;;;5055230;28;19916;-23
2023/09/04 01:02:18;;;;;;;;;;;;;;;;;;5055245;28;19909;-22
2023/09/04 01:04:44;;;;;;;;;;;;;;;;;;5055362;28;19943;-32
2023/09/04 01:07:10;;;;;;;;;;;;;;;;;;5054952;28;19928;-27
2023/09/04 01:09:36;;;;;;;;;;;;;;;;;;5055044;28;19963;-31
2023/09/04 01:12:02;;;;;;;;;;;;;;;;;;5055149;28;19909;-28
2023/09/04 01:14:28;;;;;;;;;;;;;;;;;;5054704;28;19916;-24
2023/09/04 01:16:55;;;;;;;;;;;;;;;;;;5055158;28;20007;-29
2023/09/04 01:19:21;;;;;;;;;;;;;;;;;;5054829;28;19909;-23
2023/09/04 01:21:47;;;;;;;;;;;;;;;;;;5055144;28;19909;-25
2023/09/04 01:24:13;;;;;;;;;;;;;;;;;;5054845;28;20274;-27
2023/09/04 01:26:38;;;;;;;;;;;;;;;;;;5054805;28;20341;-23
2023/09/04 01:29:05;;;;;;;;;;;;;;;;;;5055104;28;19999;-22
2023/09/04 01:31:31;;;;;;;;;;;;;;;;;;5054690;28;19921;-23
2023/09/04 01:33:57;;;;;;;;;;;;;;;;;;5054701;28;19909;-26
2023/09/04 01:36:23;;;;;;;;;;;;;;;;;;5054622;28;19939;-23
2023/09/04 01:38:49;;;;;;;;;;;;;;;;;;5054631;28;19967;-26
2023/09/04 01:41:15;;;;;;;;;;;;;;;;;;5054592;28;19932;-23
2023/09/04 01:43:41;;;;;;;;;;;;;;;;;;5054563;28;19920;-28
2023/09/04 01:46:07;;;;;;;;;;;;;;;;;;5054643;28;19909;-28
2023/09/04 01:48:33;;;;;;;;;;;;;;;;;;5054576;28;20371;-29
2023/09/04 01:50:59;;;;;;;;;;;;;;;;;;5054790;28;19916;-28
2023/09/04 01:53:25;;;;;;;;;;;;;;;;;;5054485;28;19939;-28
2023/09/04 01:55:51;;;;;;;;;;;;;;;;;;5054411;28;19923;-26
2023/09/04 01:58:17;;;;;;;;;;;;;;;;;;5054487;28;20011;-22
2023/09/04 02:00:43;;;;;;;;;;;;;;;;;;5054977;28;19909;-26
2023/09/04 02:03:09;;;;;;;;;;;;;;;;;;5054653;28;19909;-27
2023/09/04 02:05:35;;;;;;;;;;;;;;;;;;5054675;28;20225;-27
2023/09/04 02:08:01;;;;;;;;;;;;;;;;;;5054227;28;20466;-24
2023/09/04 02:10:28;;;;;;;;;;;;;;;;;;5054389;28;20237;-24
2023/09/04 02:12:56;;;;;;;;;;;;;;;;;;5054536;28;19944;-25
2023/09/04 02:15:22;;;;;;;;;;;;;;;;;;5054285;28;19908;-27
2023/09/04 02:17:48;;;;;;;;;;;;;;;;;;5054578;28;20365;-25
2023/09/04 02:20:13;;;;;;;;;;;;;;;;;;5054318;28;19917;-22
2023/09/04 02:22:39;;;;;;;;;;;;;;;;;;5054137;28;19916;-24
2023/09/04 02:25:05;;;;;;;;;;;;;;;;;;5054246;28;19913;-22
2023/09/04 02:27:31;;;;;;;;;;;;;;;;;;5055923;28;19908;-24
2023/09/04 02:29:58;;;;;;;;;;;;;;;;;;5058166;28;19917;-25
2023/09/04 02:32:24;;;;;;;;;;;;;;;;;;5057838;28;19909;-25
2023/09/04 02:34:50;;;;;;;;;;;;;;;;;;5057934;28;19909;-24
2023/09/04 02:37:16;;;;;;;;;;;;;;;;;;5057755;28;20011;-26
2023/09/04 02:39:42;;;;;;;;;;;;;;;;;;5057754;28;19909;-23
2023/09/04 02:42:08;;;;;;;;;;;;;;;;;;5057709;28;19935;-23
2023/09/04 02:44:34;;;;;;;;;;;;;;;;;;5057972;28;20342;-23
2023/09/04 02:47:00;;;;;;;;;;;;;;;;;;5057934;28;20398;-29
2023/09/04 02:49:26;;;;;;;;;;;;;;;;;;5057619;28;19931;-24
2023/09/04 02:51:51;;;;;;;;;;;;;;;;;;5057776;28;19908;-26
2023/09/04 02:54:17;;;;;;;;;;;;;;;;;;5057527;28;20301;-28
2023/09/04 02:56:43;;;;;;;;;;;;;;;;;;5057714;28;20174;-22
2023/09/04 02:59:09;;;;;;;;;;;;;;;;;;5057377;28;19908;-26
2023/09/04 03:01:35;;;;;;;;;;;;;;;;;;5057651;28;19974;-29
2023/09/04 03:04:02;;;;;;;;;;;;;;;;;;5057518;28;20232;-23
2023/09/04 03:06:28;;;;;;;;;;;;;;;;;;5057263;28;19921;-26
2023/09/04 03:08:53;;;;;;;;;;;;;;;;;;5057288;28;20404;-27
2023/09/04 03:11:19;;;;;;;;;;;;;;;;;;5057235;28;19967;-25
2023/09/04 03:13:45;;;;;;;;;;;;;;;;;;5057377;28;19913;-28
2023/09/04 03:16:11;;;;;;;;;;;;;;;;;;5056993;28;19913;-26
2023/09/04 03:18:38;;;;;;;;;;;;;;;;;;5057056;28;19916;-29
2023/09/04 03:21:03;;;;;;;;;;;;;;;;;;5057043;28;19909;-25
2023/09/04 03:23:29;;;;;;;;;;;;;;;;;;5057231;28;19909;-26
2023/09/04 03:25:56;;;;;;;;;;;;;;;;;;5056950;28;19912;-23
2023/09/04 03:28:22;;;;;;;;;;;;;;;;;;5056946;28;20283;-24
2023/09/04 03:30:48;;;;;;;;;;;;;;;;;;5056809;28;20032;-26
2023/09/04 03:33:14;;;;;;;;;;;;;;;;;;5057043;28;19980;-29
2023/09/04 03:35:40;;;;;;;;;;;;;;;;;;5055702;28;20054;-28
2023/09/04 03:38:06;;;;;;;;;;;;;;;;;;5056414;28;19909;-25
2023/09/04 03:40:32;;;;;;;;;;;;;;;;;;5055610;28;19920;-29
2023/09/04 03:42:58;;;;;;;;;;;;;;;;;;5056524;28;19988;-28
2023/09/04 03:45:24;;;;;;;;;;;;;;;;;;5056547;28;19909;-27
2023/09/04 03:47:50;;;;;;;;;;;;;;;;;;5056773;28;19909;-25
2023/09/04 03:50:16;;;;;;;;;;;;;;;;;;5056390;28;19909;-28
2023/09/04 03:52:42;;;;;;;;;;;;;;;;;;5056312;28;19908;-22
2023/09/04 03:55:08;;;;;;;;;;;;;;;;;;5056420;28;19909;-23
2023/09/04 03:57:35;;;;;;;;;;;;;;;;;;5056360;28;20251;-26
2023/09/04 04:00:01;;;;;;;;;;;;;;;;;;5056196;28;19917;-26
2023/09/04 04:02:27;;;;;;;;;;;;;;;;;;5488196;22;19928;-22
2023/09/04 04:04:53;;;;;;;;;;;;;;;;;;5056061;28;20262;-21
2023/09/04 04:07:19;;;;;;;;;;;;;;;;;;5055998;28;19978;-20
2023/09/04 04:09:46;;;;;;;;;;;;;;;;;;5055616;28;19920;-21
2023/09/04 04:12:13;;;;;;;;;;;;;;;;;;5055747;28;19913;-20
2023/09/04 04:14:39;;;;;;;;;;;;;;;;;;5055613;28;19908;-21
2023/09/04 04:17:05;;;;;;;;;;;;;;;;;;5056007;28;19966;-19
2023/09/04 04:19:31;;;;;;;;;;;;;;;;;;5055575;28;19947;-21
2023/09/04 04:21:57;;;;;;;;;;;;;;;;;;5055594;28;19909;-21
2023/09/04 04:24:23;;;;;;;;;;;;;;;;;;5054492;28;20330;-22
2023/09/04 04:26:49;;;;;;;;;;;;;;;;;;5055660;28;19920;-22
2023/09/04 04:29:15;;;;;;;;;;;;;;;;;;5055686;28;20335;-21
2023/09/04 04:31:41;;;;;;;;;;;;;;;;;;5055452;28;19909;-21
2023/09/04 04:34:07;;;;;;;;;;;;;;;;;;5055854;28;19909;-22
2023/09/04 04:36:33;;;;;;;;;;;;;;;;;;5056169;28;20341;-23
2023/09/04 04:38:59;;;;;;;;;;;;;;;;;;5054328;28;20382;-23
2023/09/04 04:41:25;;;;;;;;;;;;;;;;;;5055271;28;19916;-20
2023/09/04 04:43:51;;;;;;;;;;;;;;;;;;5055350;28;19996;-20
2023/09/04 04:46:17;;;;;;;;;;;;;;;;;;5055144;28;19909;-22
2023/09/04 04:48:43;;;;;;;;;;;;;;;;;;5054915;28;19923;-21
2023/09/04 04:51:09;;;;;;;;;;;;;;;;;;5054563;28;19909;-21
2023/09/04 04:53:35;;;;;;;;;;;;;;;;;;5054877;28;19952;-21
2023/09/04 04:56:00;;;;;;;;;;;;;;;;;;5055143;28;19916;-21
2023/09/04 04:58:27;;;;;;;;;;;;;;;;;;5054750;28;19915;-21
2023/09/04 05:00:52;;;;;;;;;;;;;;;;;;5054978;28;19920;-21
2023/09/04 05:03:18;;;;;;;;;;;;;;;;;;5054707;28;19921;-21
2023/09/04 05:05:45;;;;;;;;;;;;;;;;;;5054711;28;20016;-22
2023/09/04 05:08:11;;;;;;;;;;;;;;;;;;5054964;28;19909;-21
2023/09/04 05:10:37;;;;;;;;;;;;;;;;;;5054932;28;20244;-20
2023/09/04 05:13:03;;;;;;;;;;;;;;;;;;5054675;28;19970;-21
2023/09/04 05:15:29;;;;;;;;;;;;;;;;;;5053613;28;19936;-20
2023/09/04 05:17:54;;;;;;;;;;;;;;;;;;5054551;28;19928;-21
2023/09/04 05:20:21;;;;;;;;;;;;;;;;;;5054736;28;19958;-21
2023/09/04 05:22:47;;;;;;;;;;;;;;;;;;5054403;28;20233;-20
2023/09/04 05:25:13;;;;;;;;;;;;;;;;;;5054710;28;19919;-21
2023/09/04 05:27:39;;;;;;;;;;;;;;;;;;5054482;28;19970;-20
2023/09/04 05:30:05;;;;;;;;;;;;;;;;;;5054702;28;20002;-22
2023/09/04 05:32:31;;;;;;;;;;;;;;;;;;5054317;28;19912;-21
2023/09/04 05:34:57;;;;;;;;;;;;;;;;;;5054354;28;19916;-21
2023/09/04 05:37:23;;;;;;;;;;;;;;;;;;5054418;28;19917;-22
2023/09/04 05:39:49;;;;;;;;;;;;;;;;;;5054396;28;19913;-20
2023/09/04 05:42:15;;;;;;;;;;;;;;;;;;5054258;28;19919;-22
2023/09/04 05:44:41;;;;;;;;;;;;;;;;;;5054573;28;20000;-20
2023/09/04 05:47:07;;;;;;;;;;;;;;;;;;5054200;28;19939;-21
2023/09/04 05:49:33;;;;;;;;;;;;;;;;;;5054316;28;19978;-20
2023/09/04 05:51:58;;;;;;;;;;;;;;;;;;5054123;28;19991;-22
2023/09/04 05:54:24;;;;;;;;;;;;;;;;;;5054442;28;19958;-21
2023/09/04 05:56:51;;;;;;;;;;;;;;;;;;5054235;28;19920;-22
2023/09/04 05:59:17;;;;;;;;;;;;;;;;;;5054465;28;20254;-23
2023/09/04 06:01:43;;;;;;;;;;;;;;;;;;5056028;28;19932;-21
2023/09/04 06:04:11;;;;;;;;;;;;;;;;;;5058058;28;19954;-21
2023/09/04 06:06:38;;;;;;;;;;;;;;;;;;5056961;28;19920;-19
2023/09/04 06:09:05;;;;;;;;;;;;;;;;;;5057811;28;19920;-21
2023/09/04 06:11:31;;;;;;;;;;;;;;;;;;5057688;28;19954;-24
2023/09/04 06:13:57;;;;;;;;;;;;;;;;;;5057492;28;19912;-21
2023/09/04 06:16:23;;;;;;;;;;;;;;;;;;5057671;28;19978;-21
2023/09/04 06:18:49;;;;;;;;;;;;;;;;;;5057646;28;19933;-20
2023/09/04 06:21:15;;;;;;;;;;;;;;;;;;5056459;28;20263;-20
2023/09/04 06:23:41;;;;;;;;;;;;;;;;;;5057394;28;19941;-21
2023/09/04 06:26:07;;;;;;;;;;;;;;;;;;5057291;28;19959;-20
2023/09/04 06:28:33;;;;;;;;;;;;;;;;;;5056332;28;20397;-20
2023/09/04 06:30:59;;;;;;;;;;;;;;;;;;5056258;28;19913;-23
2023/09/04 06:33:25;;;;;;;;;;;;;;;;;;5057204;28;19909;-21
2023/09/04 06:35:51;;;;;;;;;;;;;;;;;;5056245;28;19942;-19
2023/09/04 06:38:17;;;;;;;;;;;;;;;;;;5057231;28;19976;-21
2023/09/04 06:40:43;;;;;;;;;;;;;;;;;;5057730;28;19970;-19
2023/09/04 06:43:09;;;;;;;;;;;;;;;;;;5057552;28;19909;-21
2023/09/04 06:45:37;;;;;;;;;;;;;;;;;;5057548;28;19909;-22
2023/09/04 06:48:03;;;;;;;;;;;;;;;;;;5057388;28;19913;-22
2023/09/04 06:50:29;;;;;;;;;;;;;;;;;;5057241;28;19919;-21
2023/09/04 06:52:55;;;;;;;;;;;;;;;;;;5057119;28;19908;-21
2023/09/04 06:55:21;;;;;;;;;;;;;;;;;;5057186;28;20288;-23
2023/09/04 06:57:47;;;;;;;;;;;;;;;;;;5056990;28;19912;-20
2023/09/04 07:00:13;;;;;;;;;;;;;;;;;;5057163;28;19913;-20
2023/09/04 07:02:39;;;;;;;;;;;;;;;;;;5056685;28;19950;-20
2023/09/04 07:05:07;;;;;;;;;;;;;;;;;;5057095;28;19967;-22
2023/09/04 07:07:35;;;;;;;;;;;;;;;;;;5057177;28;19912;-20
2023/09/04 07:10:01;;;;;;;;;;;;;;;;;;5057111;28;19909;-20
2023/09/04 07:12:27;;;;;;;;;;;;;;;;;;5055121;28;20003;-21
2023/09/04 07:14:53;;;;;;;;;;;;;;;;;;5056838;28;19913;-21
2023/09/04 07:17:19;;;;;;;;;;;;;;;;;;5056968;28;20078;-20
2023/09/04 07:19:45;;;;;;;;;;;;;;;;;;5056702;28;20375;-23
2023/09/04 07:22:11;;;;;;;;;;;;;;;;;;5056721;28;19917;-21
2023/09/04 07:24:37;;;;;;;;;;;;;;;;;;5057062;28;19987;-21
2023/09/04 07:27:03;;;;;;;;;;;;;;;;;;5056770;28;20432;-20
2023/09/04 07:29:29;;;;;;;;;;;;;;;;;;5056946;28;19909;-20
2023/09/04 07:31:56;;;;;;;;;;;;;;;;;;5056300;28;19909;-19
2023/09/04 07:34:22;;;;;;;;;;;;;;;;;;5056230;28;19940;-20
2023/09/04 07:36:48;;;;;;;;;;;;;;;;;;5056254;28;19964;-20
2023/09/04 07:39:14;;;;;;;;;;;;;;;;;;5056421;28;19920;-19
2023/09/04 07:41:40;;;;;;;;;;;;;;;;;;5056673;28;19919;-22
2023/09/04 07:44:06;;;;;;;;;;;;;;;;;;5056565;28;19955;-21
2023/09/04 07:46:32;;;;;;;;;;;;;;;;;;5056117;28;19920;-20
2023/09/04 07:48:58;;;;;;;;;;;;;;;;;;5056430;28;19943;-21
2023/09/04 07:51:24;;;;;;;;;;;;;;;;;;5056232;28;19950;-23
2023/09/04 07:53:50;;;;;;;;;;;;;;;;;;5056143;28;19931;-22
2023/09/04 07:56:16;;;;;;;;;;;;;;;;;;5056614;28;19912;-22
2023/09/04 07:58:44;;;;;;;;;;;;;;;;;;5056544;28;19920;-21
2023/09/04 08:01:09;;;;;;;;;;;;;;;;;;5056021;28;19912;-21
2023/09/04 08:03:35;;;;;;;;;;;;;;;;;;5055691;28;20007;-22
2023/09/04 08:06:01;;;;;;;;;;;;;;;;;;5056021;28;19919;-20
2023/09/04 08:08:27;;;;;;;;;;;;;;;;;;5056402;28;19916;-22
2023/09/04 08:10:53;;;;;;;;;;;;;;;;;;5056003;28;19919;-19
2023/09/04 08:13:19;;;;;;;;;;;;;;;;;;5055711;28;19962;-21
2023/09/04 08:15:45;;;;;;;;;;;;;;;;;;5055638;28;20281;-21
2023/09/04 08:18:11;;;;;;;;;;;;;;;;;;5055847;28;19908;-21
2023/09/04 08:20:37;;;;;;;;;;;;;;;;;;5055239;28;19909;-20
2023/09/04 08:23:03;;;;;;;;;;;;;;;;;;5055325;28;19978;-20
2023/09/04 08:25:29;;;;;;;;;;;;;;;;;;5055620;28;19999;-21
2023/09/04 08:27:55;;;;;;;;;;;;;;;;;;5055331;28;20002;-19
2023/09/04 08:30:21;;;;;;;;;;;;;;;;;;5055353;28;19909;-21
2023/09/04 08:32:47;;;;;;;;;;;;;;;;;;5055490;28;20003;-23
2023/09/04 08:35:13;;;;;;;;;;;;;;;;;;5055288;28;19913;-21
2023/09/04 08:37:39;;;;;;;;;;;;;;;;;;5055445;28;19919;-20
2023/09/04 08:40:05;;;;;;;;;;;;;;;;;;5055499;28;19909;-20
2023/09/04 08:42:31;;;;;;;;;;;;;;;;;;5054827;28;19909;-23
2023/09/04 08:44:57;;;;;;;;;;;;;;;;;;5055017;28;19962;-26
2023/09/04 08:47:23;;;;;;;;;;;;;;;;;;5053731;28;19916;-21
2023/09/04 08:49:49;;;;;;;;;;;;;;;;;;5053494;28;20291;-21
2023/09/04 08:52:15;;;;;;;;;;;;;;;;;;5053532;28;19908;-20
2023/09/04 08:54:41;;;;;;;;;;;;;;;;;;5054685;28;19915;-23
2023/09/04 08:57:08;;;;;;;;;;;;;;;;;;5054787;28;20007;-22
2023/09/04 08:59:34;;;;;;;;;;;;;;;;;;5054720;28;19931;-21
2023/09/04 09:02:03;;;;;;;;;;;;;;;;;;5054357;28;19908;-20
2023/09/04 09:04:29;;;;;;;;;;;;;;;;;;5054429;28;20020;-19
2023/09/04 09:06:55;;;;;;;;;;;;;;;;;;5054198;28;20342;-21
2023/09/04 09:09:21;;;;;;;;;;;;;;;;;;5054446;28;19908;-23
2023/09/04 09:11:53;;;;;;;;;;;;;;;;;;5054426;28;19912;-21
2023/09/04 09:14:19;;;;;;;;;;;;;;;;;;5054337;28;19909;-21
2023/09/04 09:16:45;;;;;;;;;;;;;;;;;;5054148;28;19919;-20
2023/09/04 09:19:11;;;;;;;;;;;;;;;;;;5053059;28;19966;-20
2023/09/04 09:21:37;;;;;;;;;;;;;;;;;;5054362;28;19909;-19
2023/09/04 09:24:03;;;;;;;;;;;;;;;;;;5054219;28;20348;-20
2023/09/04 09:26:29;;;;;;;;;;;;;;;;;;5054533;28;19909;-21
2023/09/04 09:28:55;;;;;;;;;;;;;;;;;;5054439;28;20003;-21
2023/09/04 09:31:21;;;;;;;;;;;;;;;;;;5054593;28;19970;-21
2023/09/04 09:33:47;;;;;;;;;;;;;;;;;;5054250;28;19913;-22
2023/09/04 09:36:13;;;;;;;;;;;;;;;;;;5053756;28;19943;-22
2023/09/04 09:38:39;;;;;;;;;;;;;;;;;;5054288;28;19959;-20
2023/09/04 09:41:05;;;;;;;;;;;;;;;;;;5054847;28;19908;-21
2023/09/04 09:43:31;;;;;;;;;;;;;;;;;;5054334;28;19909;-21
2023/09/04 09:45:57;;;;;;;;;;;;;;;;;;5054252;28;19966;-22
2023/09/04 09:48:25;;;;;;;;;;;;;;;;;;5054133;28;19924;-20
2023/09/04 09:50:53;;;;;;;;;;;;;;;;;;5054344;28;19909;-22
2023/09/04 09:53:19;;;;;;;;;;;;;;;;;;5054130;28;20005;-21
2023/09/04 09:55:45;;;;;;;;;;;;;;;;;;5052957;28;20043;-20
2023/09/04 09:58:11;;;;;;;;;;;;;;;;;;5054142;28;19916;-21
2023/09/04 10:00:37;;;;;;;;;;;;;;;;;;5053963;28;19909;-20
2023/09/04 10:03:03;;;;;;;;;;;;;;;;;;5053756;28;20283;-21
2023/09/04 10:05:29;;;;;;;;;;;;;;;;;;5053839;28;19933;-21
2023/09/04 10:07:56;;;;;;;;;;;;;;;;;;5052926;28;20339;-22
2023/09/04 10:10:24;;;;;;;;;;;;;;;;;;5053142;28;20456;-21
2023/09/04 10:12:50;;;;;;;;;;;;;;;;;;5052736;28;19908;-22
2023/09/04 10:15:16;;;;;;;;;;;;;;;;;;5053893;28;19913;-21
2023/09/04 10:17:41;;;;;;;;;;;;;;;;;;5053879;28;20345;-21
2023/09/04 10:20:07;;;;;;;;;;;;;;;;;;5053994;28;20336;-20
2023/09/04 10:22:33;;;;;;;;;;;;;;;;;;5053955;28;19913;-19
2023/09/04 10:24:59;;;;;;;;;;;;;;;;;;5053176;28;19909;-19
2023/09/04 10:27:25;;;;;;;;;;;;;;;;;;5053897;28;19977;-21
2023/09/04 10:29:51;;;;;;;;;;;;;;;;;;5054096;28;19916;-23
2023/09/04 10:32:17;;;;;;;;;;;;;;;;;;5053200;28;19916;-21
2023/09/04 10:34:43;;;;;;;;;;;;;;;;;;5054118;28;19913;-20
2023/09/04 10:37:09;;;;;;;;;;;;;;;;;;5053832;28;19913;-20
2023/09/04 10:39:35;;;;;;;;;;;;;;;;;;5052760;28;19909;-21
2023/09/04 10:42:01;;;;;;;;;;;;;;;;;;5053753;28;19916;-23
2023/09/04 10:44:27;;;;;;;;;;;;;;;;;;5053613;28;19909;-21
2023/09/04 10:46:53;;;;;;;;;;;;;;;;;;5052635;28;20294;-21
2023/09/04 10:49:19;;;;;;;;;;;;;;;;;;5056707;28;20401;-21
2023/09/04 10:51:45;;;;;;;;;;;;;;;;;;5057238;28;19909;-20
2023/09/04 10:54:11;;;;;;;;;;;;;;;;;;5057607;28;19974;-20
2023/09/04 10:56:37;;;;;;;;;;;;;;;;;;5056953;28;19920;-24
2023/09/04 10:59:03;;;;;;;;;;;;;;;;;;5056955;28;20008;-22
2023/09/04 11:01:29;;;;;;;;;;;;;;;;;;5056863;28;20294;-21
2023/09/04 11:03:55;;;;;;;;;;;;;;;;;;5055508;28;19950;-20
2023/09/04 11:06:21;;;;;;;;;;;;;;;;;;5056944;28;19909;-19
2023/09/04 11:08:47;;;;;;;;;;;;;;;;;;5056721;28;19920;-21
2023/09/04 11:11:13;;;;;;;;;;;;;;;;;;5056701;28;19912;-22
2023/09/04 11:13:40;;;;;;;;;;;;;;;;;;5056706;28;19909;-21
2023/09/04 11:16:06;;;;;;;;;;;;;;;;;;5056790;28;19920;-22
2023/09/04 11:18:32;;;;;;;;;;;;;;;;;;5056773;28;20346;-20
2023/09/04 11:20:59;;;;;;;;;;;;;;;;;;5056464;28;19909;-20
2023/09/04 11:23:25;;;;;;;;;;;;;;;;;;5056543;28;20339;-21
2023/09/04 11:25:52;;;;;;;;;;;;;;;;;;5056823;28;19909;-20
2023/09/04 11:28:22;;;;;;;;;;;;;;;;;;5055470;28;19908;-20
2023/09/04 11:30:48;;;;;;;;;;;;;;;;;;5056536;28;19908;-20
2023/09/04 11:33:14;;;;;;;;;;;;;;;;;;5055487;28;20337;-22
2023/09/04 11:35:40;;;;;;;;;;;;;;;;;;5056310;28;19909;-20
2023/09/04 11:38:06;;;;;;;;;;;;;;;;;;5056434;28;19909;-21
2023/09/04 11:40:32;;;;;;;;;;;;;;;;;;5056620;28;19921;-20
2023/09/04 11:42:58;;;;;;;;;;;;;;;;;;5056399;28;19971;-23
2023/09/04 11:45:24;;;;;;;;;;;;;;;;;;5056450;28;19913;-22
2023/09/04 11:47:50;;;;;;;;;;;;;;;;;;5056581;28;19916;-21
2023/09/04 11:50:16;;;;;;;;;;;;;;;;;;5056386;28;20010;-22
2023/09/04 11:52:42;;;;;;;;;;;;;;;;;;5056699;28;19913;-20
2023/09/04 11:55:09;;;;;;;;;;;;;;;;;;5055992;28;20004;-20
2023/09/04 11:57:35;;;;;;;;;;;;;;;;;;5055962;28;19939;-21
2023/09/04 12:00:01;;;;;;;;;;;;;;;;;;5055807;28;19916;-19
2023/09/04 12:02:27;;;;;;;;;;;;;;;;;;5055684;28;19916;-21
2023/09/04 12:04:56;;;;;;;;;;;;;;;;;;5055988;28;20003;-22
2023/09/04 12:07:22;;;;;;;;;;;;;;;;;;5056188;28;19919;-20
2023/09/04 12:09:48;;;;;;;;;;;;;;;;;;5055659;28;20402;-23
2023/09/04 12:12:15;;;;;;;;;;;;;;;;;;5055705;28;19978;-21
2023/09/04 12:14:41;;;;;;;;;;;;;;;;;;5055544;28;19919;-23
2023/09/04 12:17:07;;;;;;;;;;;;;;;;;;5055375;28;20284;-22
2023/09/04 12:19:33;;;;;;;;;;;;;;;;;;5054658;28;19913;-21
2023/09/04 12:21:59;;;;;;;;;;;;;;;;;;5055707;28;20262;-24
2023/09/04 12:24:25;;;;;;;;;;;;;;;;;;5055551;28;19919;-20
2023/09/04 12:26:51;;;;;;;;;;;;;;;;;;5055428;28;20279;-21
2023/09/04 12:29:17;;;;;;;;;;;;;;;;;;5054324;28;20302;-21
2023/09/04 12:31:43;;;;;;;;;;;;;;;;;;5055135;28;19996;-22
2023/09/04 12:34:09;;;;;;;;;;;;;;;;;;5054928;28;19908;-23
2023/09/04 12:36:35;;;;;;;;;;;;;;;;;;5054949;28;19956;-21
2023/09/04 12:39:01;;;;;;;;;;;;;;;;;;5055068;28;19945;-20
2023/09/04 12:41:27;;;;;;;;;;;;;;;;;;5055213;28;19991;-22
2023/09/04 12:43:53;;;;;;;;;;;;;;;;;;5055141;28;19920;-22
2023/09/04 12:46:19;;;;;;;;;;;;;;;;;;5054461;28;19985;-21
2023/09/04 12:48:45;;;;;;;;;;;;;;;;;;5054650;28;19916;-21
2023/09/04 12:51:11;;;;;;;;;;;;;;;;;;5053656;28;19909;-20
2023/09/04 12:53:37;;;;;;;;;;;;;;;;;;5054954;28;20358;-21
2023/09/04 12:56:03;;;;;;;;;;;;;;;;;;5054665;28;19916;-19
2023/09/04 12:58:29;;;;;;;;;;;;;;;;;;5054694;28;20267;-21
2023/09/04 13:00:55;;;;;;;;;;;;;;;;;;5053742;28;19909;-21
2023/09/04 13:03:21;;;;;;;;;;;;;;;;;;5054542;28;19921;-21
2023/09/04 13:05:47;;;;;;;;;;;;;;;;;;5054224;28;19913;-22
2023/09/04 13:08:13;;;;;;;;;;;;;;;;;;5054701;28;20019;-20
2023/09/04 13:10:39;;;;;;;;;;;;;;;;;;5053806;28;20275;-19
2023/09/04 13:13:05;;;;;;;;;;;;;;;;;;5054712;28;19909;-22
2023/09/04 13:15:31;;;;;;;;;;;;;;;;;;5054429;28;19909;-21
2023/09/04 13:17:57;;;;;;;;;;;;;;;;;;5054436;28;19912;-20
2023/09/04 13:20:23;;;;;;;;;;;;;;;;;;5053353;28;20014;-20
2023/09/04 13:22:49;;;;;;;;;;;;;;;;;;5054172;28;20003;-21
2023/09/04 13:25:15;;;;;;;;;;;;;;;;;;5054894;28;19935;-20
2023/09/04 13:27:41;;;;;;;;;;;;;;;;;;5054167;28;20331;-23
2023/09/04 13:30:08;;;;;;;;;;;;;;;;;;5054152;28;19908;-21
2023/09/04 13:32:34;;;;;;;;;;;;;;;;;;5052992;28;19908;-21
2023/09/04 13:35:03;;;;;;;;;;;;;;;;;;5053202;28;19909;-22
2023/09/04 13:37:29;;;;;;;;;;;;;;;;;;5054428;28;20325;-22
2023/09/04 13:39:56;;;;;;;;;;;;;;;;;;5053213;28;19939;-22
2023/09/04 13:42:22;;;;;;;;;;;;;;;;;;5054030;28;19920;-20
2023/09/04 13:44:48;;;;;;;;;;;;;;;;;;5054287;28;20247;-21
2023/09/04 13:47:13;;;;;;;;;;;;;;;;;;5054446;28;20255;-19
2023/09/04 13:49:39;;;;;;;;;;;;;;;;;;5054100;28;19909;-20
2023/09/04 13:52:05;;;;;;;;;;;;;;;;;;5054329;28;20255;-20
2023/09/04 13:54:31;;;;;;;;;;;;;;;;;;5054183;28;19916;-20
2023/09/04 13:56:57;;;;;;;;;;;;;;;;;;5053954;28;20396;-24
2023/09/04 13:59:24;;;;;;;;;;;;;;;;;;5053902;28;19916;-20
2023/09/04 14:01:50;;;;;;;;;;;;;;;;;;5052475;28;19920;-22
2023/09/04 14:04:17;;;;;;;;;;;;;;;;;;5053391;28;19921;-20
2023/09/04 14:06:42;;;;;;;;;;;;;;;;;;5052494;28;19931;-21
2023/09/04 14:09:08;;;;;;;;;;;;;;;;;;5053613;28;20277;-26
2023/09/04 14:11:34;;;;;;;;;;;;;;;;;;5053500;28;20007;-22
2023/09/04 14:14:00;;;;;;;;;;;;;;;;;;5053765;28;19909;-21
2023/09/04 14:16:26;;;;;;;;;;;;;;;;;;5052554;28;19970;-21
2023/09/04 14:18:52;;;;;;;;;;;;;;;;;;5053639;28;19919;-22
2023/09/04 14:21:18;;;;;;;;;;;;;;;;;;5053778;28;19952;-20
2023/09/04 14:23:45;;;;;;;;;;;;;;;;;;5057287;28;20256;-21
2023/09/04 14:26:11;;;;;;;;;;;;;;;;;;5057316;28;20259;-20
2023/09/04 14:28:37;;;;;;;;;;;;;;;;;;5056216;28;19909;-21
2023/09/04 14:31:03;;;;;;;;;;;;;;;;;;5057832;28;20331;-23
2023/09/04 14:33:29;;;;;;;;;;;;;;;;;;5056382;28;20279;-21
2023/09/04 14:35:55;;;;;;;;;;;;;;;;;;5056544;28;20335;-22
2023/09/04 14:38:21;;;;;;;;;;;;;;;;;;5056510;28;19909;-20
2023/09/04 14:40:49;;;;;;;;;;;;;;;;;;5056466;28;19913;-19
2023/09/04 14:43:15;;;;;;;;;;;;;;;;;;5057385;28;19912;-20
2023/09/04 14:45:41;;;;;;;;;;;;;;;;;;5056217;28;19909;-20
2023/09/04 14:48:07;;;;;;;;;;;;;;;;;;5056973;28;19908;-20
2023/09/04 14:50:33;;;;;;;;;;;;;;;;;;5056924;28;19916;-21
2023/09/04 14:52:59;;;;;;;;;;;;;;;;;;5056976;28;19909;-22
2023/09/04 14:55:25;;;;;;;;;;;;;;;;;;5057049;28;19909;-22
2023/09/04 14:57:50;;;;;;;;;;;;;;;;;;5055849;28;19939;-21
2023/09/04 15:00:16;;;;;;;;;;;;;;;;;;5055894;28;19908;-20
2023/09/04 15:02:42;;;;;;;;;;;;;;;;;;5057170;28;20343;-21
2023/09/04 15:05:08;;;;;;;;;;;;;;;;;;5057067;28;19909;-23
2023/09/04 15:07:34;;;;;;;;;;;;;;;;;;5057074;28;19982;-21
2023/09/04 15:10:00;;;;;;;;;;;;;;;;;;5055883;28;19909;-22
2023/09/04 15:12:26;;;;;;;;;;;;;;;;;;5056996;28;19913;-21
2023/09/04 15:14:52;;;;;;;;;;;;;;;;;;5056390;28;19999;-20
2023/09/04 15:17:18;;;;;;;;;;;;;;;;;;5056245;28;20254;-21
2023/09/04 15:19:44;;;;;;;;;;;;;;;;;;5056229;28;19935;-22
2023/09/04 15:22:10;;;;;;;;;;;;;;;;;;5056190;28;20269;-22
2023/09/04 15:24:36;;;;;;;;;;;;;;;;;;5056198;28;19908;-21
2023/09/04 15:27:02;;;;;;;;;;;;;;;;;;5056163;28;20052;-31
2023/09/04 15:29:28;;;;;;;;;;;;;;;;;;5055075;28;19927;-20
2023/09/04 15:31:54;;;;;;;;;;;;;;;;;;5054983;28;19909;-23
2023/09/04 15:34:20;;;;;;;;;;;;;;;;;;5055660;28;19940;-21
2023/09/04 15:36:46;;;;;;;;;;;;;;;;;;5056335;28;19998;-21
2023/09/04 15:39:12;;;;;;;;;;;;;;;;;;5055211;28;19909;-21
2023/09/04 15:41:38;;;;;;;;;;;;;;;;;;5055331;28;19916;-19
2023/09/04 15:44:04;;;;;;;;;;;;;;;;;;5056276;28;19920;-21
2023/09/04 15:46:30;;;;;;;;;;;;;;;;;;5056641;28;19999;-21
2023/09/04 15:48:56;;;;;;;;;;;;;;;;;;5056354;28;19962;-21
2023/09/04 15:51:22;;;;;;;;;;;;;;;;;;5056327;28;19913;-21
2023/09/04 15:53:48;;;;;;;;;;;;;;;;;;5056728;28;19913;-21
2023/09/04 15:56:14;;;;;;;;;;;;;;;;;;5056058;28;19924;-20
2023/09/04 15:58:40;;;;;;;;;;;;;;;;;;5055938;28;19915;-21
2023/09/04 16:01:05;;;;;;;;;;;;;;;;;;5056079;28;19909;-20
2023/09/04 16:03:31;;;;;;;;;;;;;;;;;;5055872;28;20314;-22
2023/09/04 16:05:57;;;;;;;;;;;;;;;;;;5056168;28;19928;-21
2023/09/04 16:08:23;;;;;;;;;;;;;;;;;;5055942;28;19919;-21
2023/09/04 16:10:49;;;;;;;;;;;;;;;;;;5056081;28;20021;-21
2023/09/04 16:13:15;;;;;;;;;;;;;;;;;;5055620;28;19909;-21
2023/09/04 16:15:41;;;;;;;;;;;;;;;;;;5054491;28;20264;-20
2023/09/04 16:18:07;;;;;;;;;;;;;;;;;;5055592;28;19913;-22
2023/09/04 16:20:33;;;;;;;;;;;;;;;;;;5055455;28;19919;-21
2023/09/04 16:22:59;;;;;;;;;;;;;;;;;;5055729;28;19916;-22
2023/09/04 16:25:25;;;;;;;;;;;;;;;;;;5055904;28;19995;-21
2023/09/04 16:27:51;;;;;;;;;;;;;;;;;;5055660;28;20309;-20
2023/09/04 16:30:17;;;;;;;;;;;;;;;;;;5055273;28;20004;-22
2023/09/04 16:32:43;;;;;;;;;;;;;;;;;;5055046;28;20220;-21
2023/09/04 16:35:10;;;;;;;;;;;;;;;;;;5055065;28;19909;-22
2023/09/04 16:37:36;;;;;;;;;;;;;;;;;;5055089;28;19912;-21